Time;durP1;ratioP1;P1;durP2;ratioP2;P2;SDS_P1;SDS_P2;PMS_P1;PMS_P2;Temp;Humidity;BMP_temperature;BMP_pressure;BME280_temperature;BME280_humidity;BME280_pressure;Samples;Min_cycle;Max_cycle;Signal;HPM_P1;HPM_P2
2022/12/17 13:10:45;;;;;;;18.30;7.30;;;;;;;16.48;49.60;97248.72;10488993;28;20029;-29
2022/12/17 13:15:52;;;;;;;12.07;6.70;;;;;;;16.42;46.37;97234.31;10483947;28;20032;-29
2022/12/17 13:21:04;;;;;;;10.05;6.05;;;;;;;16.44;48.83;97232.66;10482675;28;20036;-28
2022/12/17 13:26:11;;;;;;;11.82;6.10;;;;;;;16.60;46.58;97221.97;10479654;28;20458;-29
2022/12/17 13:31:18;;;;;;;13.70;6.80;;;;;;;16.43;46.23;97242.72;10475431;28;20043;-29
2022/12/17 13:36:49;;;;;;;11.18;6.07;;;;;;;16.67;46.65;97243.97;10485768;28;20040;-29
2022/12/17 13:41:54;;;;;;;15.35;6.57;;;;;;;16.75;46.46;97268.53;10470401;28;20055;-29
2022/12/17 13:46:55;;;;;;;11.63;6.43;;;;;;;16.79;48.29;97277.03;10476924;28;20025;-29
2022/12/17 13:52:04;;;;;;;14.70;6.20;;;;;;;16.81;46.44;97288.88;10478696;28;20396;-29
2022/12/17 13:57:22;;;;;;;8.50;5.78;;;;;;;16.78;46.12;97268.59;10456135;28;20049;-29
2022/12/17 14:02:25;;;;;;;11.48;7.00;;;;;;;16.69;45.51;97285.28;10443862;28;20404;-29
2022/12/17 14:07:27;;;;;;;13.00;6.63;;;;;;;16.91;46.44;97279.75;10431206;28;20036;-29
2022/12/17 14:12:28;;;;;;;11.13;6.47;;;;;;;16.89;45.93;97277.19;10441587;28;20029;-29
2022/12/17 14:17:43;;;;;;;14.90;5.70;;;;;;;16.89;46.28;97276.34;10432669;28;20052;-29
2022/12/17 14:22:48;;;;;;;8.95;5.82;;;;;;;16.93;46.16;97286.53;10431718;28;20060;-29
2022/12/17 14:27:59;;;;;;;10.13;6.10;;;;;;;16.93;46.34;97278.09;10434800;28;20026;-30
2022/12/17 14:32:59;;;;;;;19.20;9.13;;;;;;;16.97;48.38;97283.22;10436603;28;20087;-30
2022/12/17 14:38:02;;;;;;;29.80;15.38;;;;;;;16.93;48.74;97286.53;10429953;28;20033;-33
2022/12/17 14:43:03;;;;;;;33.30;16.95;;;;;;;16.95;48.15;97278.94;10440351;28;20025;-28
2022/12/17 14:48:05;;;;;;;29.40;14.40;;;;;;;16.97;46.40;97302.59;10427494;28;20037;-29
2022/12/17 14:53:25;;;;;;;37.15;14.80;;;;;;;16.97;45.15;97297.53;10438363;28;20745;-29
2022/12/17 14:58:26;;;;;;;31.00;17.00;;;;;;;16.95;44.97;97309.31;10431199;28;20095;-31
2022/12/17 15:03:30;;;;;;;24.58;13.95;;;;;;;16.77;43.58;97307.34;10426855;28;20034;-29
2022/12/17 15:08:34;;;;;;;25.90;14.18;;;;;;;16.94;43.43;97297.50;10427367;28;20058;-28
2022/12/17 15:13:34;;;;;;;20.60;11.57;;;;;;;17.04;40.95;97299.31;10439453;28;20496;-29
2022/12/17 15:18:34;;;;;;;26.97;12.73;;;;;;;17.03;42.72;97308.59;10428775;28;20033;-29
2022/12/17 15:23:39;;;;;;;30.23;12.33;;;;;;;17.03;41.25;97310.28;10441391;28;20034;-29
2022/12/17 15:28:42;;;;;;;17.33;9.85;;;;;;;17.01;40.38;97309.41;10431932;28;20036;-30
2022/12/17 15:33:43;;;;;;;18.70;11.63;;;;;;;16.97;41.62;97311.03;10436146;28;20459;-31
2022/12/17 15:38:45;;;;;;;21.88;12.38;;;;;;;16.89;40.31;97324.41;10433683;28;20028;-30
2022/12/17 15:43:45;;;;;;;19.13;10.80;;;;;;;16.98;39.73;97320.31;10434358;28;20045;-29
2022/12/17 15:48:45;;;;;;;18.00;10.80;;;;;;;16.97;42.23;97322.81;10431719;28;20508;-30
2022/12/17 15:53:46;;;;;;;14.97;10.17;;;;;;;16.98;41.52;97316.97;10436426;28;20123;-31
2022/12/17 15:58:47;;;;;;;14.65;8.80;;;;;;;16.93;39.20;97299.19;10443029;28;20306;-31
2022/12/17 16:03:50;;;;;;;21.45;12.73;;;;;;;17.02;42.00;97318.69;10448393;28;20025;-30
2022/12/17 16:08:50;;;;;;;17.83;11.02;;;;;;;17.00;43.02;97316.13;10446411;28;20041;-31
2022/12/17 16:13:54;;;;;;;20.43;12.13;;;;;;;17.01;42.93;97311.94;10446343;28;20036;-30
2022/12/17 16:18:54;;;;;;;14.00;9.30;;;;;;;17.05;41.37;97304.41;10442328;28;21056;-30
2022/12/17 16:23:55;;;;;;;11.47;8.37;;;;;;;17.09;41.57;97302.78;10440519;28;20047;-30
2022/12/17 16:28:58;;;;;;;17.13;10.67;;;;;;;17.26;42.41;97303.88;10439815;28;20025;-30
2022/12/17 16:33:59;;;;;;;16.67;10.32;;;;;;;17.28;43.30;97307.28;10442911;28;20287;-31
2022/12/17 16:38:59;;;;;;;15.47;10.27;;;;;;;17.16;42.03;97312.16;10445259;28;20028;-32
2022/12/17 16:44:00;;;;;;;19.63;10.60;;;;;;;17.17;43.68;97311.34;10432003;28;20090;-30
2022/12/17 16:49:18;;;;;;;20.95;10.85;;;;;;;17.28;44.14;97330.91;10442553;28;20033;-28
2022/12/17 16:54:22;;;;;;;22.40;11.38;;;;;;;17.31;45.58;97308.16;10439142;28;20033;-28
2022/12/17 16:59:22;;;;;;;19.92;11.60;;;;;;;17.37;45.60;97322.63;10441367;28;20040;-30
2022/12/17 17:04:23;;;;;;;28.57;15.20;;;;;;;17.39;47.15;97310.81;10439427;28;20079;-28
2022/12/17 17:09:24;;;;;;;28.03;14.00;;;;;;;17.44;45.93;97311.75;10450540;28;20124;-28
2022/12/17 17:14:25;;;;;;;26.88;13.65;;;;;;;17.34;45.81;97299.78;10440014;28;20687;-28
2022/12/17 17:19:25;;;;;;;24.58;12.93;;;;;;;17.38;45.00;97324.31;10447666;28;20029;-28
2022/12/17 17:24:26;;;;;;;23.07;13.00;;;;;;;17.40;44.45;97317.63;10445114;28;20029;-28
2022/12/17 17:29:26;;;;;;;22.02;13.00;;;;;;;17.31;44.67;97320.00;10442662;28;20041;-28
2022/12/17 17:34:26;;;;;;;26.13;15.37;;;;;;;17.11;44.82;97301.13;10441563;28;20041;-27
2022/12/17 17:39:27;;;;;;;23.33;14.00;;;;;;;17.20;44.67;97303.78;10440355;28;20029;-28
2022/12/17 17:44:27;;;;;;;25.73;12.82;;;;;;;17.10;44.06;97312.06;10445943;28;20171;-30
2022/12/17 17:49:28;;;;;;;32.33;17.17;;;;;;;17.10;46.18;97312.06;10432634;28;20037;-28
2022/12/17 17:54:28;;;;;;;28.88;15.52;;;;;;;17.04;45.24;97322.09;10445162;28;20340;-28
2022/12/17 17:59:29;;;;;;;27.50;14.00;;;;;;;17.22;45.73;97337.53;10434021;28;20492;-28
2022/12/17 18:04:29;;;;;;;39.80;14.20;;;;;;;17.32;45.30;97341.94;10427587;28;20061;-28
2022/12/17 18:09:30;;;;;;;30.02;13.80;;;;;;;17.39;45.09;97342.06;10435628;28;20300;-28
2022/12/17 18:14:30;;;;;;;27.87;14.63;;;;;;;17.42;46.33;97351.38;10440619;28;20070;-28
2022/12/17 18:19:31;;;;;;;29.27;13.52;;;;;;;17.41;46.15;97349.69;10431963;28;20527;-28
2022/12/17 18:24:31;;;;;;;33.63;16.87;;;;;;;17.52;48.43;97363.34;10440028;28;20051;-27
2022/12/17 18:29:33;;;;;;;31.10;14.75;;;;;;;17.62;50.09;97362.63;10422782;28;20283;-28
2022/12/17 18:34:34;;;;;;;27.38;13.20;;;;;;;17.63;46.94;97374.44;10439669;28;20599;-28
2022/12/17 18:39:34;;;;;;;36.03;13.23;;;;;;;17.43;45.83;97398.66;10435458;28;20037;-29
2022/12/17 18:44:38;;;;;;;29.88;13.45;;;;;;;17.53;46.79;97396.28;10437677;28;20021;-30
2022/12/17 18:49:38;;;;;;;23.40;12.70;;;;;;;17.54;45.72;97392.91;10429359;28;20025;-29
2022/12/17 18:54:39;;;;;;;23.50;11.83;;;;;;;17.59;45.19;97401.41;10437023;28;20044;-28
2022/12/17 18:59:39;;;;;;;23.48;13.18;;;;;;;17.52;45.84;97398.78;10430739;28;20819;-28
2022/12/17 19:04:40;;;;;;;21.02;11.68;;;;;;;17.58;45.42;97404.78;10426249;28;20386;-28
2022/12/17 19:09:41;;;;;;;27.13;12.50;;;;;;;17.61;46.80;97404.84;10445296;28;20032;-28
2022/12/17 19:14:42;;;;;;;23.85;12.18;;;;;;;17.63;45.67;97404.84;10428541;28;20041;-28
2022/12/17 19:19:42;;;;;;;20.70;11.10;;;;;;;17.62;45.29;97420.84;10444264;28;20082;-29
2022/12/17 19:24:45;;;;;;;20.10;11.77;;;;;;;17.18;44.83;97426.91;10438117;28;20446;-30
2022/12/17 19:29:45;;;;;;;26.35;13.93;;;;;;;17.32;47.17;97430.50;10432836;28;20029;-29
2022/12/17 19:34:46;;;;;;;21.20;12.67;;;;;;;17.45;45.86;97440.00;10445957;28;20029;-29
2022/12/17 19:39:46;;;;;;;21.33;11.57;;;;;;;17.42;46.21;97439.97;10461940;28;20279;-29
2022/12/17 19:44:47;;;;;;;24.30;11.13;;;;;;;17.43;46.73;97434.09;10463190;28;20299;-29
2022/12/17 19:49:48;;;;;;;18.95;11.18;;;;;;;17.41;46.81;97438.28;10451178;28;20101;-30
2022/12/17 19:54:49;;;;;;;23.45;11.75;;;;;;;17.34;47.02;97442.34;10445231;28;20417;-29
2022/12/17 19:59:49;;;;;;;23.38;10.93;;;;;;;17.38;47.01;97455.94;10445760;28;20566;-29
2022/12/17 20:04:50;;;;;;;17.10;10.17;;;;;;;17.35;47.15;97445.72;10435354;28;20512;-29
2022/12/17 20:09:50;;;;;;;18.13;9.75;;;;;;;17.33;46.75;97442.34;10456893;28;20528;-29
2022/12/17 20:14:50;;;;;;;18.47;9.40;;;;;;;17.35;46.18;97448.25;10462280;28;20417;-29
2022/12/17 20:19:52;;;;;;;16.57;10.00;;;;;;;17.32;46.36;97436.41;10449334;28;20595;-30
2022/12/17 20:24:54;;;;;;;17.67;10.48;;;;;;;17.35;45.40;97433.06;10446834;28;20326;-28
2022/12/17 20:29:54;;;;;;;13.60;8.57;;;;;;;17.33;46.44;97434.75;10443124;28;20045;-33
2022/12/17 20:34:55;;;;;;;14.80;9.23;;;;;;;17.38;45.22;97435.69;10442634;28;20287;-29
2022/12/17 20:39:55;;;;;;;18.73;8.50;;;;;;;17.40;46.53;97428.97;10440751;28;20028;-29
2022/12/17 20:44:55;;;;;;;15.63;8.70;;;;;;;17.36;45.75;97440.75;10444473;28;20043;-30
2022/12/17 20:49:56;;;;;;;13.33;7.80;;;;;;;17.32;45.86;97435.56;10433224;28;20287;-29
2022/12/17 20:54:56;;;;;;;19.77;9.30;;;;;;;17.30;46.79;97424.53;10437124;28;20291;-30
2022/12/17 20:59:56;;;;;;;14.90;8.23;;;;;;;17.27;47.58;97407.66;10436648;28;20345;-30
2022/12/17 21:04:57;;;;;;;16.33;8.37;;;;;;;17.24;46.65;97412.66;10433029;28;20694;-30
2022/12/17 21:09:57;;;;;;;17.03;8.90;;;;;;;17.24;46.46;97407.59;10446856;28;20551;-28
2022/12/17 21:14:57;;;;;;;15.40;8.27;;;;;;;17.21;47.08;97407.56;10441970;28;20079;-29
2022/12/17 21:19:58;;;;;;;12.20;7.87;;;;;;;17.21;46.33;97414.28;10433203;28;20610;-29
2022/12/17 21:24:58;;;;;;;10.83;8.00;;;;;;;17.20;46.53;97410.91;10442944;28;20486;-29
2022/12/17 21:29:59;;;;;;;12.53;8.00;;;;;;;17.25;45.81;97411.00;10438247;28;20465;-30
2022/12/17 21:34:59;;;;;;;12.15;8.07;;;;;;;17.04;47.15;97378.59;10445537;28;20067;-29
2022/12/17 21:40:00;;;;;;;16.37;8.47;;;;;;;17.26;47.99;97410.16;10439244;28;20047;-31
2022/12/17 21:45:01;;;;;;;15.63;9.45;;;;;;;17.32;47.47;97413.63;10442332;28;20037;-29
2022/12/17 21:50:02;;;;;;;19.00;10.40;;;;;;;17.29;48.65;97415.25;10433846;28;20028;-30
2022/12/17 21:55:02;;;;;;;19.73;9.02;;;;;;;17.26;47.16;97420.28;10439257;28;20512;-29
2022/12/17 22:00:03;;;;;;;13.27;8.48;;;;;;;17.26;46.69;97420.28;10443552;28;20400;-29
2022/12/17 22:05:04;;;;;;;14.45;8.23;;;;;;;17.20;46.33;97426.09;10435919;28;20431;-29
2022/12/17 22:10:05;;;;;;;12.43;8.02;;;;;;;17.18;45.54;97422.69;10436811;28;20040;-29
2022/12/17 22:15:06;;;;;;;18.48;9.30;;;;;;;17.17;45.78;97430.25;10438054;28;20504;-29
2022/12/17 22:20:07;;;;;;;12.55;8.02;;;;;;;17.17;45.50;97430.25;10432075;28;20120;-29
2022/12/17 22:25:09;;;;;;;12.07;7.70;;;;;;;17.13;45.63;97420.91;10443394;28;20036;-29
2022/12/17 22:35:37;;;;;;;15.82;7.93;;;;;;;17.12;45.97;97417.53;10435016;28;20044;-29
2022/12/17 22:40:38;;;;;;;14.27;8.10;;;;;;;17.12;45.78;97435.25;10438900;28;20502;-29
2022/12/17 22:45:42;;;;;;;15.15;7.85;;;;;;;17.10;45.73;97431.84;10438314;28;20021;-29
2022/12/17 22:50:42;;;;;;;11.93;7.95;;;;;;;17.13;47.66;97439.47;10430641;28;20028;-29
2022/12/17 22:55:42;;;;;;;14.95;7.70;;;;;;;17.17;46.74;97448.81;10435835;28;20043;-29
2022/12/17 23:00:43;;;;;;;13.13;7.93;;;;;;;17.15;46.79;97472.41;10431716;28;20455;-29
2022/12/17 23:05:43;;;;;;;9.07;6.78;;;;;;;17.16;46.06;97476.63;10424915;28;20044;-28
2022/12/17 23:10:46;;;;;;;11.15;6.68;;;;;;;17.08;45.59;97465.53;10441623;28;20044;-29
2022/12/17 23:15:47;;;;;;;11.77;7.53;;;;;;;17.07;45.52;97473.94;10434027;28;20039;-29
2022/12/17 23:20:47;;;;;;;13.40;7.47;;;;;;;17.09;46.02;97482.41;10441468;28;20091;-29
2022/12/17 23:25:47;;;;;;;12.87;6.77;;;;;;;17.09;46.04;97467.22;10437751;28;20033;-29
2022/12/17 23:30:48;;;;;;;11.53;6.57;;;;;;;17.07;46.06;97443.59;10441785;28;20049;-28
2022/12/17 23:35:48;;;;;;;11.95;6.68;;;;;;;17.05;45.77;97438.50;10438444;28;20047;-29
2022/12/17 23:40:49;;;;;;;10.93;6.47;;;;;;;17.04;45.76;97436.78;10435816;28;20044;-29
2022/12/17 23:45:49;;;;;;;12.63;7.67;;;;;;;17.04;46.06;97448.56;10433251;28;20043;-29
2022/12/17 23:50:49;;;;;;;10.80;6.90;;;;;;;17.00;46.29;97446.84;10436872;28;20051;-29
2022/12/17 23:55:50;;;;;;;12.90;7.03;;;;;;;17.00;46.27;97455.25;10435124;28;20099;-29
